sensor_id;sensor_type;location;lat;lon;timestamp;P1;durP1;ratioP1;P2;durP2;ratioP2
11125;SDS011;5617;54.046;10.676;2022-09-09T00:00:05;14.60;;;13.00;;
11125;SDS011;5617;54.046;10.676;2022-09-09T00:02:19;16.90;;;14.30;;
11125;SDS011;5617;54.046;10.676;2022-09-09T00:04:28;15.73;;;13.43;;
11125;SDS011;5617;54.046;10.676;2022-09-09T00:06:43;17.90;;;13.87;;
11125;SDS011;5617;54.046;10.676;2022-09-09T00:08:55;16.00;;;13.57;;
11125;SDS011;5617;54.046;10.676;2022-09-09T00:11:09;15.80;;;14.03;;
11125;SDS011;5617;54.046;10.676;2022-09-09T00:13:25;15.93;;;14.23;;
11125;SDS011;5617;54.046;10.676;2022-09-09T00:15:41;15.80;;;14.00;;
11125;SDS011;5617;54.046;10.676;2022-09-09T00:17:56;16.93;;;14.33;;
11125;SDS011;5617;54.046;10.676;2022-09-09T00:20:11;18.53;;;15.33;;
11125;SDS011;5617;54.046;10.676;2022-09-09T00:22:22;18.93;;;15.13;;
11125;SDS011;5617;54.046;10.676;2022-09-09T00:24:33;18.03;;;15.47;;
11125;SDS011;5617;54.046;10.676;2022-09-09T00:26:47;18.53;;;15.00;;
11125;SDS011;5617;54.046;10.676;2022-09-09T00:28:58;21.53;;;17.03;;
11125;SDS011;5617;54.046;10.676;2022-09-09T00:31:13;21.50;;;16.83;;
11125;SDS011;5617;54.046;10.676;2022-09-09T00:33:24;27.37;;;19.37;;
11125;SDS011;5617;54.046;10.676;2022-09-09T00:35:34;26.57;;;18.77;;
11125;SDS011;5617;54.046;10.676;2022-09-09T00:37:44;27.97;;;20.20;;
11125;SDS011;5617;54.046;10.676;2022-09-09T00:39:57;27.80;;;20.03;;
11125;SDS011;5617;54.046;10.676;2022-09-09T00:42:13;29.30;;;20.17;;
11125;SDS011;5617;54.046;10.676;2022-09-09T00:44:25;30.13;;;20.63;;
11125;SDS011;5617;54.046;10.676;2022-09-09T00:46:43;32.13;;;21.63;;
11125;SDS011;5617;54.046;10.676;2022-09-09T00:49:04;33.43;;;21.17;;
11125;SDS011;5617;54.046;10.676;2022-09-09T00:51:22;29.90;;;21.47;;
11125;SDS011;5617;54.046;10.676;2022-09-09T00:53:37;31.33;;;20.87;;
11125;SDS011;5617;54.046;10.676;2022-09-09T00:55:49;30.97;;;21.47;;
11125;SDS011;5617;54.046;10.676;2022-09-09T00:58:08;27.67;;;20.07;;
11125;SDS011;5617;54.046;10.676;2022-09-09T01:00:17;30.87;;;21.03;;
11125;SDS011;5617;54.046;10.676;2022-09-09T01:02:28;32.17;;;21.00;;
11125;SDS011;5617;54.046;10.676;2022-09-09T01:04:39;29.53;;;20.17;;
11125;SDS011;5617;54.046;10.676;2022-09-09T01:06:49;35.27;;;21.93;;
11125;SDS011;5617;54.046;10.676;2022-09-09T01:09:07;34.20;;;22.73;;
11125;SDS011;5617;54.046;10.676;2022-09-09T01:11:21;33.20;;;22.53;;
11125;SDS011;5617;54.046;10.676;2022-09-09T01:13:33;35.17;;;22.33;;
11125;SDS011;5617;54.046;10.676;2022-09-09T01:15:42;31.73;;;22.30;;
11125;SDS011;5617;54.046;10.676;2022-09-09T01:17:54;35.13;;;23.40;;
11125;SDS011;5617;54.046;10.676;2022-09-09T01:20:10;35.47;;;23.00;;
11125;SDS011;5617;54.046;10.676;2022-09-09T01:22:26;35.07;;;22.90;;
11125;SDS011;5617;54.046;10.676;2022-09-09T01:24:40;33.47;;;22.27;;
11125;SDS011;5617;54.046;10.676;2022-09-09T01:26:57;34.97;;;22.33;;
11125;SDS011;5617;54.046;10.676;2022-09-09T01:29:08;35.57;;;22.80;;
11125;SDS011;5617;54.046;10.676;2022-09-09T01:31:20;38.97;;;22.40;;
11125;SDS011;5617;54.046;10.676;2022-09-09T01:33:31;36.67;;;22.30;;
11125;SDS011;5617;54.046;10.676;2022-09-09T01:35:42;36.63;;;22.50;;
11125;SDS011;5617;54.046;10.676;2022-09-09T01:37:54;36.23;;;22.27;;
11125;SDS011;5617;54.046;10.676;2022-09-09T01:40:02;40.43;;;22.87;;
11125;SDS011;5617;54.046;10.676;2022-09-09T01:42:13;39.37;;;22.20;;
11125;SDS011;5617;54.046;10.676;2022-09-09T01:44:23;43.20;;;23.63;;
11125;SDS011;5617;54.046;10.676;2022-09-09T01:46:32;46.00;;;23.87;;
11125;SDS011;5617;54.046;10.676;2022-09-09T01:48:40;45.37;;;24.00;;
11125;SDS011;5617;54.046;10.676;2022-09-09T01:50:48;48.90;;;24.67;;
11125;SDS011;5617;54.046;10.676;2022-09-09T01:52:57;45.13;;;24.43;;
11125;SDS011;5617;54.046;10.676;2022-09-09T01:55:07;48.57;;;24.50;;
11125;SDS011;5617;54.046;10.676;2022-09-09T01:57:17;44.97;;;22.93;;
11125;SDS011;5617;54.046;10.676;2022-09-09T01:59:35;44.10;;;23.17;;
11125;SDS011;5617;54.046;10.676;2022-09-09T02:01:56;45.50;;;23.23;;
11125;SDS011;5617;54.046;10.676;2022-09-09T02:04:13;48.80;;;24.40;;
11125;SDS011;5617;54.046;10.676;2022-09-09T02:06:33;49.83;;;24.43;;
11125;SDS011;5617;54.046;10.676;2022-09-09T02:08:43;47.93;;;22.20;;
11125;SDS011;5617;54.046;10.676;2022-09-09T02:10:55;45.63;;;22.60;;
11125;SDS011;5617;54.046;10.676;2022-09-09T02:13:09;43.97;;;22.60;;
11125;SDS011;5617;54.046;10.676;2022-09-09T02:15:20;47.87;;;22.30;;
11125;SDS011;5617;54.046;10.676;2022-09-09T02:17:47;53.07;;;24.40;;
11125;SDS011;5617;54.046;10.676;2022-09-09T02:19:59;53.30;;;23.67;;
11125;SDS011;5617;54.046;10.676;2022-09-09T02:22:12;48.33;;;23.73;;
11125;SDS011;5617;54.046;10.676;2022-09-09T02:24:20;44.97;;;24.00;;
11125;SDS011;5617;54.046;10.676;2022-09-09T02:26:29;47.23;;;23.13;;
11125;SDS011;5617;54.046;10.676;2022-09-09T02:28:38;47.73;;;23.17;;
11125;SDS011;5617;54.046;10.676;2022-09-09T02:30:48;47.13;;;23.47;;
11125;SDS011;5617;54.046;10.676;2022-09-09T02:33:01;45.53;;;22.37;;
11125;SDS011;5617;54.046;10.676;2022-09-09T02:35:14;43.63;;;22.50;;
11125;SDS011;5617;54.046;10.676;2022-09-09T02:37:25;45.17;;;21.47;;
11125;SDS011;5617;54.046;10.676;2022-09-09T02:39:36;45.30;;;21.77;;
11125;SDS011;5617;54.046;10.676;2022-09-09T02:41:44;44.50;;;21.83;;
11125;SDS011;5617;54.046;10.676;2022-09-09T02:43:54;48.60;;;23.30;;
11125;SDS011;5617;54.046;10.676;2022-09-09T02:46:03;46.43;;;22.57;;
11125;SDS011;5617;54.046;10.676;2022-09-09T02:48:32;48.03;;;23.30;;
11125;SDS011;5617;54.046;10.676;2022-09-09T02:50:53;48.83;;;23.43;;
11125;SDS011;5617;54.046;10.676;2022-09-09T02:53:08;50.00;;;22.97;;
11125;SDS011;5617;54.046;10.676;2022-09-09T02:55:23;52.30;;;23.77;;
11125;SDS011;5617;54.046;10.676;2022-09-09T02:57:37;50.27;;;23.40;;
11125;SDS011;5617;54.046;10.676;2022-09-09T02:59:48;49.77;;;23.70;;
11125;SDS011;5617;54.046;10.676;2022-09-09T03:01:57;52.93;;;24.37;;
11125;SDS011;5617;54.046;10.676;2022-09-09T03:04:05;48.03;;;22.60;;
11125;SDS011;5617;54.046;10.676;2022-09-09T03:06:13;49.17;;;23.07;;
11125;SDS011;5617;54.046;10.676;2022-09-09T03:08:21;42.67;;;24.13;;
11125;SDS011;5617;54.046;10.676;2022-09-09T03:10:29;47.57;;;23.80;;
11125;SDS011;5617;54.046;10.676;2022-09-09T03:12:37;51.23;;;24.50;;
11125;SDS011;5617;54.046;10.676;2022-09-09T03:14:45;49.03;;;24.73;;
11125;SDS011;5617;54.046;10.676;2022-09-09T03:16:55;54.17;;;27.20;;
11125;SDS011;5617;54.046;10.676;2022-09-09T03:19:06;49.13;;;25.47;;
11125;SDS011;5617;54.046;10.676;2022-09-09T03:21:14;51.73;;;26.07;;
11125;SDS011;5617;54.046;10.676;2022-09-09T03:23:22;53.07;;;27.00;;
11125;SDS011;5617;54.046;10.676;2022-09-09T03:25:30;47.57;;;24.73;;
11125;SDS011;5617;54.046;10.676;2022-09-09T03:27:39;43.13;;;23.93;;
11125;SDS011;5617;54.046;10.676;2022-09-09T03:29:48;40.90;;;22.77;;
11125;SDS011;5617;54.046;10.676;2022-09-09T03:31:57;40.23;;;22.77;;
11125;SDS011;5617;54.046;10.676;2022-09-09T03:34:06;36.67;;;21.83;;
11125;SDS011;5617;54.046;10.676;2022-09-09T03:36:14;36.03;;;22.23;;
11125;SDS011;5617;54.046;10.676;2022-09-09T03:38:22;35.33;;;22.83;;
11125;SDS011;5617;54.046;10.676;2022-09-09T03:40:29;32.17;;;21.57;;
11125;SDS011;5617;54.046;10.676;2022-09-09T03:42:37;36.80;;;21.70;;
11125;SDS011;5617;54.046;10.676;2022-09-09T03:44:45;33.07;;;21.37;;
11125;SDS011;5617;54.046;10.676;2022-09-09T03:46:57;36.90;;;22.73;;
11125;SDS011;5617;54.046;10.676;2022-09-09T03:49:06;33.50;;;20.87;;
11125;SDS011;5617;54.046;10.676;2022-09-09T03:51:15;31.37;;;20.90;;
11125;SDS011;5617;54.046;10.676;2022-09-09T03:53:23;31.90;;;20.63;;
11125;SDS011;5617;54.046;10.676;2022-09-09T03:55:31;32.37;;;20.20;;
11125;SDS011;5617;54.046;10.676;2022-09-09T03:57:39;27.37;;;19.10;;
11125;SDS011;5617;54.046;10.676;2022-09-09T03:59:47;30.87;;;19.97;;
11125;SDS011;5617;54.046;10.676;2022-09-09T04:01:54;30.70;;;20.87;;
11125;SDS011;5617;54.046;10.676;2022-09-09T04:04:04;32.07;;;21.00;;
11125;SDS011;5617;54.046;10.676;2022-09-09T04:06:13;27.30;;;19.27;;
11125;SDS011;5617;54.046;10.676;2022-09-09T04:08:22;30.60;;;19.87;;
11125;SDS011;5617;54.046;10.676;2022-09-09T04:10:31;27.70;;;19.63;;
11125;SDS011;5617;54.046;10.676;2022-09-09T04:12:38;27.90;;;19.60;;
11125;SDS011;5617;54.046;10.676;2022-09-09T04:14:46;31.03;;;19.23;;
11125;SDS011;5617;54.046;10.676;2022-09-09T04:16:53;27.33;;;18.70;;
11125;SDS011;5617;54.046;10.676;2022-09-09T04:19:04;29.33;;;20.30;;
11125;SDS011;5617;54.046;10.676;2022-09-09T04:21:13;26.07;;;18.60;;
11125;SDS011;5617;54.046;10.676;2022-09-09T04:23:21;28.80;;;19.73;;
11125;SDS011;5617;54.046;10.676;2022-09-09T04:25:30;31.00;;;20.70;;
11125;SDS011;5617;54.046;10.676;2022-09-09T04:27:37;27.87;;;20.07;;
11125;SDS011;5617;54.046;10.676;2022-09-09T04:29:45;28.33;;;19.07;;
11125;SDS011;5617;54.046;10.676;2022-09-09T04:31:52;28.07;;;19.73;;
11125;SDS011;5617;54.046;10.676;2022-09-09T04:33:59;27.17;;;19.17;;
11125;SDS011;5617;54.046;10.676;2022-09-09T04:36:12;25.90;;;18.87;;
11125;SDS011;5617;54.046;10.676;2022-09-09T04:38:20;28.60;;;19.90;;
11125;SDS011;5617;54.046;10.676;2022-09-09T04:40:29;28.00;;;19.37;;
11125;SDS011;5617;54.046;10.676;2022-09-09T04:42:37;26.73;;;18.20;;
11125;SDS011;5617;54.046;10.676;2022-09-09T04:44:45;29.37;;;18.43;;
11125;SDS011;5617;54.046;10.676;2022-09-09T04:46:52;24.33;;;17.70;;
11125;SDS011;5617;54.046;10.676;2022-09-09T04:49:00;23.97;;;17.03;;
11125;SDS011;5617;54.046;10.676;2022-09-09T04:51:09;22.63;;;17.07;;
11125;SDS011;5617;54.046;10.676;2022-09-09T04:53:21;22.50;;;16.90;;
11125;SDS011;5617;54.046;10.676;2022-09-09T04:55:28;21.87;;;17.00;;
11125;SDS011;5617;54.046;10.676;2022-09-09T04:57:36;22.77;;;16.67;;
11125;SDS011;5617;54.046;10.676;2022-09-09T04:59:43;22.77;;;17.67;;
11125;SDS011;5617;54.046;10.676;2022-09-09T05:01:51;24.20;;;16.50;;
11125;SDS011;5617;54.046;10.676;2022-09-09T05:04:01;23.00;;;17.27;;
11125;SDS011;5617;54.046;10.676;2022-09-09T05:06:09;23.33;;;17.53;;
11125;SDS011;5617;54.046;10.676;2022-09-09T05:08:19;23.23;;;17.20;;
11125;SDS011;5617;54.046;10.676;2022-09-09T05:10:28;28.50;;;17.97;;
11125;SDS011;5617;54.046;10.676;2022-09-09T05:12:36;24.10;;;18.17;;
11125;SDS011;5617;54.046;10.676;2022-09-09T05:14:43;25.80;;;17.63;;
11125;SDS011;5617;54.046;10.676;2022-09-09T05:16:51;25.00;;;18.20;;
11125;SDS011;5617;54.046;10.676;2022-09-09T05:18:58;26.17;;;19.00;;
11125;SDS011;5617;54.046;10.676;2022-09-09T05:21:06;26.67;;;18.80;;
11125;SDS011;5617;54.046;10.676;2022-09-09T05:23:14;25.17;;;18.77;;
11125;SDS011;5617;54.046;10.676;2022-09-09T05:25:23;25.50;;;19.20;;
11125;SDS011;5617;54.046;10.676;2022-09-09T05:27:33;25.33;;;19.60;;
11125;SDS011;5617;54.046;10.676;2022-09-09T05:29:40;24.87;;;18.27;;
11125;SDS011;5617;54.046;10.676;2022-09-09T05:31:50;23.93;;;18.60;;
11125;SDS011;5617;54.046;10.676;2022-09-09T05:33:57;26.33;;;19.30;;
11125;SDS011;5617;54.046;10.676;2022-09-09T05:36:05;25.47;;;18.83;;
11125;SDS011;5617;54.046;10.676;2022-09-09T05:38:14;24.17;;;18.40;;
11125;SDS011;5617;54.046;10.676;2022-09-09T05:40:25;24.17;;;18.43;;
11125;SDS011;5617;54.046;10.676;2022-09-09T05:42:33;27.40;;;19.17;;
11125;SDS011;5617;54.046;10.676;2022-09-09T05:44:40;24.73;;;17.53;;
11125;SDS011;5617;54.046;10.676;2022-09-09T05:46:48;26.13;;;18.90;;
11125;SDS011;5617;54.046;10.676;2022-09-09T05:48:55;26.33;;;19.03;;
11125;SDS011;5617;54.046;10.676;2022-09-09T05:51:04;23.80;;;18.70;;
11125;SDS011;5617;54.046;10.676;2022-09-09T05:53:12;25.93;;;19.50;;
11125;SDS011;5617;54.046;10.676;2022-09-09T05:55:20;25.77;;;19.57;;
11125;SDS011;5617;54.046;10.676;2022-09-09T05:57:29;28.57;;;20.40;;
11125;SDS011;5617;54.046;10.676;2022-09-09T05:59:36;26.37;;;19.00;;
11125;SDS011;5617;54.046;10.676;2022-09-09T06:01:44;27.70;;;19.63;;
11125;SDS011;5617;54.046;10.676;2022-09-09T06:03:51;28.13;;;19.37;;
11125;SDS011;5617;54.046;10.676;2022-09-09T06:06:00;29.20;;;20.60;;
11125;SDS011;5617;54.046;10.676;2022-09-09T06:08:11;27.37;;;19.57;;
11125;SDS011;5617;54.046;10.676;2022-09-09T06:10:19;26.53;;;20.17;;
11125;SDS011;5617;54.046;10.676;2022-09-09T06:12:26;28.37;;;19.97;;
11125;SDS011;5617;54.046;10.676;2022-09-09T06:14:35;26.37;;;18.63;;
11125;SDS011;5617;54.046;10.676;2022-09-09T06:16:45;26.27;;;18.80;;
11125;SDS011;5617;54.046;10.676;2022-09-09T06:18:53;24.47;;;17.77;;
11125;SDS011;5617;54.046;10.676;2022-09-09T06:21:02;26.03;;;18.67;;
11125;SDS011;5617;54.046;10.676;2022-09-09T06:23:12;22.40;;;17.77;;
11125;SDS011;5617;54.046;10.676;2022-09-09T06:25:20;22.73;;;18.00;;
11125;SDS011;5617;54.046;10.676;2022-09-09T06:27:28;23.20;;;17.63;;
11125;SDS011;5617;54.046;10.676;2022-09-09T06:29:37;23.83;;;17.23;;
11125;SDS011;5617;54.046;10.676;2022-09-09T06:31:44;23.27;;;17.73;;
11125;SDS011;5617;54.046;10.676;2022-09-09T06:33:53;24.03;;;18.17;;
11125;SDS011;5617;54.046;10.676;2022-09-09T06:36:01;22.83;;;17.73;;
11125;SDS011;5617;54.046;10.676;2022-09-09T06:38:10;21.63;;;17.80;;
11125;SDS011;5617;54.046;10.676;2022-09-09T06:40:18;21.63;;;17.33;;
11125;SDS011;5617;54.046;10.676;2022-09-09T06:42:26;22.40;;;17.70;;
11125;SDS011;5617;54.046;10.676;2022-09-09T06:44:33;21.07;;;17.00;;
11125;SDS011;5617;54.046;10.676;2022-09-09T06:46:46;20.67;;;17.10;;
11125;SDS011;5617;54.046;10.676;2022-09-09T06:48:54;19.83;;;16.33;;
11125;SDS011;5617;54.046;10.676;2022-09-09T06:51:06;20.87;;;16.40;;
11125;SDS011;5617;54.046;10.676;2022-09-09T06:53:15;17.93;;;16.03;;
11125;SDS011;5617;54.046;10.676;2022-09-09T06:55:24;17.90;;;15.87;;
11125;SDS011;5617;54.046;10.676;2022-09-09T06:57:32;19.13;;;15.63;;
11125;SDS011;5617;54.046;10.676;2022-09-09T06:59:39;18.60;;;15.90;;
11125;SDS011;5617;54.046;10.676;2022-09-09T07:01:49;19.17;;;16.13;;
11125;SDS011;5617;54.046;10.676;2022-09-09T07:03:59;17.00;;;15.20;;
11125;SDS011;5617;54.046;10.676;2022-09-09T07:08:21;17.53;;;15.37;;
11125;SDS011;5617;54.046;10.676;2022-09-09T07:10:28;18.60;;;15.13;;
11125;SDS011;5617;54.046;10.676;2022-09-09T07:12:36;16.63;;;14.87;;
11125;SDS011;5617;54.046;10.676;2022-09-09T07:14:44;18.17;;;15.37;;
11125;SDS011;5617;54.046;10.676;2022-09-09T07:16:53;18.50;;;15.40;;
11125;SDS011;5617;54.046;10.676;2022-09-09T07:19:00;15.73;;;13.97;;
11125;SDS011;5617;54.046;10.676;2022-09-09T07:21:08;15.37;;;13.83;;
11125;SDS011;5617;54.046;10.676;2022-09-09T07:23:17;15.03;;;13.50;;
11125;SDS011;5617;54.046;10.676;2022-09-09T07:25:25;14.40;;;12.90;;
11125;SDS011;5617;54.046;10.676;2022-09-09T07:27:34;13.77;;;12.43;;
11125;SDS011;5617;54.046;10.676;2022-09-09T07:29:42;14.47;;;11.60;;
11125;SDS011;5617;54.046;10.676;2022-09-09T07:31:52;13.37;;;11.57;;
11125;SDS011;5617;54.046;10.676;2022-09-09T07:34:02;12.50;;;11.20;;
11125;SDS011;5617;54.046;10.676;2022-09-09T07:36:12;12.07;;;10.87;;
11125;SDS011;5617;54.046;10.676;2022-09-09T07:38:20;11.63;;;10.53;;
11125;SDS011;5617;54.046;10.676;2022-09-09T07:40:29;12.67;;;10.07;;
11125;SDS011;5617;54.046;10.676;2022-09-09T07:42:37;11.43;;;10.33;;
11125;SDS011;5617;54.046;10.676;2022-09-09T07:44:45;11.30;;;10.10;;
11125;SDS011;5617;54.046;10.676;2022-09-09T07:46:54;11.27;;;10.17;;
11125;SDS011;5617;54.046;10.676;2022-09-09T07:49:02;10.27;;;9.20;;
11125;SDS011;5617;54.046;10.676;2022-09-09T07:51:11;9.43;;;8.53;;
11125;SDS011;5617;54.046;10.676;2022-09-09T07:53:20;10.10;;;9.20;;
11125;SDS011;5617;54.046;10.676;2022-09-09T07:55:28;10.10;;;9.10;;
11125;SDS011;5617;54.046;10.676;2022-09-09T07:57:36;10.33;;;9.33;;
11125;SDS011;5617;54.046;10.676;2022-09-09T07:59:43;9.30;;;8.40;;
11125;SDS011;5617;54.046;10.676;2022-09-09T08:01:51;9.40;;;8.40;;
11125;SDS011;5617;54.046;10.676;2022-09-09T08:04:01;9.20;;;8.30;;
11125;SDS011;5617;54.046;10.676;2022-09-09T08:06:10;8.83;;;7.73;;
11125;SDS011;5617;54.046;10.676;2022-09-09T08:08:19;8.10;;;7.27;;
11125;SDS011;5617;54.046;10.676;2022-09-09T08:10:27;9.30;;;8.30;;
11125;SDS011;5617;54.046;10.676;2022-09-09T08:12:36;8.33;;;7.53;;
11125;SDS011;5617;54.046;10.676;2022-09-09T08:14:43;7.90;;;7.20;;
11125;SDS011;5617;54.046;10.676;2022-09-09T08:16:51;8.10;;;7.40;;
11125;SDS011;5617;54.046;10.676;2022-09-09T08:19:01;8.23;;;6.97;;
11125;SDS011;5617;54.046;10.676;2022-09-09T08:21:10;12.07;;;6.80;;
11125;SDS011;5617;54.046;10.676;2022-09-09T08:23:19;7.57;;;6.87;;
11125;SDS011;5617;54.046;10.676;2022-09-09T08:25:27;7.00;;;6.40;;
11125;SDS011;5617;54.046;10.676;2022-09-09T08:27:35;7.20;;;6.60;;
11125;SDS011;5617;54.046;10.676;2022-09-09T08:29:43;6.80;;;6.20;;
11125;SDS011;5617;54.046;10.676;2022-09-09T08:31:51;6.67;;;6.00;;
11125;SDS011;5617;54.046;10.676;2022-09-09T08:34:02;6.87;;;6.27;;
11125;SDS011;5617;54.046;10.676;2022-09-09T08:36:13;6.30;;;5.80;;
11125;SDS011;5617;54.046;10.676;2022-09-09T08:38:22;6.57;;;5.93;;
11125;SDS011;5617;54.046;10.676;2022-09-09T08:40:32;6.47;;;5.87;;
11125;SDS011;5617;54.046;10.676;2022-09-09T08:42:47;6.40;;;5.80;;
11125;SDS011;5617;54.046;10.676;2022-09-09T08:45:02;6.40;;;5.17;;
11125;SDS011;5617;54.046;10.676;2022-09-09T08:47:20;5.70;;;5.20;;
11125;SDS011;5617;54.046;10.676;2022-09-09T08:49:57;8.53;;;5.63;;
11125;SDS011;5617;54.046;10.676;2022-09-09T08:52:15;6.10;;;5.50;;
11125;SDS011;5617;54.046;10.676;2022-09-09T08:54:26;6.03;;;5.47;;
11125;SDS011;5617;54.046;10.676;2022-09-09T08:56:39;5.20;;;4.80;;
11125;SDS011;5617;54.046;10.676;2022-09-09T08:58:48;6.23;;;5.63;;
11125;SDS011;5617;54.046;10.676;2022-09-09T09:01:03;6.03;;;5.43;;
11125;SDS011;5617;54.046;10.676;2022-09-09T09:03:27;5.50;;;5.00;;
11125;SDS011;5617;54.046;10.676;2022-09-09T09:05:42;6.60;;;5.33;;
11125;SDS011;5617;54.046;10.676;2022-09-09T09:07:56;5.83;;;5.33;;
11125;SDS011;5617;54.046;10.676;2022-09-09T09:10:15;6.00;;;5.40;;
11125;SDS011;5617;54.046;10.676;2022-09-09T09:12:35;5.20;;;4.77;;
11125;SDS011;5617;54.046;10.676;2022-09-09T09:14:47;6.10;;;5.50;;
11125;SDS011;5617;54.046;10.676;2022-09-09T09:16:56;5.53;;;5.13;;
11125;SDS011;5617;54.046;10.676;2022-09-09T09:19:07;5.90;;;5.40;;
11125;SDS011;5617;54.046;10.676;2022-09-09T09:21:21;5.57;;;5.03;;
11125;SDS011;5617;54.046;10.676;2022-09-09T09:23:37;7.20;;;5.40;;
11125;SDS011;5617;54.046;10.676;2022-09-09T09:25:47;5.70;;;5.20;;
11125;SDS011;5617;54.046;10.676;2022-09-09T09:27:58;6.13;;;5.17;;
11125;SDS011;5617;54.046;10.676;2022-09-09T09:30:13;6.07;;;5.10;;
11125;SDS011;5617;54.046;10.676;2022-09-09T09:32:22;5.50;;;5.00;;
11125;SDS011;5617;54.046;10.676;2022-09-09T09:34:32;6.20;;;5.30;;
11125;SDS011;5617;54.046;10.676;2022-09-09T09:36:41;6.03;;;5.43;;
11125;SDS011;5617;54.046;10.676;2022-09-09T09:38:53;5.23;;;4.73;;
11125;SDS011;5617;54.046;10.676;2022-09-09T09:41:02;5.63;;;5.10;;
11125;SDS011;5617;54.046;10.676;2022-09-09T09:43:16;6.07;;;5.47;;
11125;SDS011;5617;54.046;10.676;2022-09-09T09:45:28;5.80;;;5.30;;
11125;SDS011;5617;54.046;10.676;2022-09-09T09:47:39;5.30;;;4.80;;
11125;SDS011;5617;54.046;10.676;2022-09-09T09:49:53;5.30;;;4.90;;
11125;SDS011;5617;54.046;10.676;2022-09-09T09:52:03;6.37;;;5.27;;
11125;SDS011;5617;54.046;10.676;2022-09-09T09:54:17;4.70;;;4.30;;
11125;SDS011;5617;54.046;10.676;2022-09-09T09:56:29;5.20;;;4.77;;
11125;SDS011;5617;54.046;10.676;2022-09-09T09:58:47;4.70;;;4.30;;
11125;SDS011;5617;54.046;10.676;2022-09-09T10:00:56;4.33;;;3.90;;
11125;SDS011;5617;54.046;10.676;2022-09-09T10:03:12;4.93;;;3.50;;
11125;SDS011;5617;54.046;10.676;2022-09-09T10:05:26;4.20;;;3.80;;
11125;SDS011;5617;54.046;10.676;2022-09-09T10:07:36;4.57;;;4.20;;
11125;SDS011;5617;54.046;10.676;2022-09-09T10:09:44;4.37;;;3.97;;
11125;SDS011;5617;54.046;10.676;2022-09-09T10:11:55;4.60;;;4.17;;
11125;SDS011;5617;54.046;10.676;2022-09-09T10:14:13;4.43;;;4.10;;
11125;SDS011;5617;54.046;10.676;2022-09-09T10:16:30;4.03;;;3.53;;
11125;SDS011;5617;54.046;10.676;2022-09-09T10:18:52;4.93;;;3.80;;
11125;SDS011;5617;54.046;10.676;2022-09-09T10:21:07;4.23;;;3.73;;
11125;SDS011;5617;54.046;10.676;2022-09-09T10:23:28;3.80;;;3.33;;
11125;SDS011;5617;54.046;10.676;2022-09-09T10:25:56;3.57;;;3.27;;
11125;SDS011;5617;54.046;10.676;2022-09-09T10:28:25;3.43;;;2.97;;
11125;SDS011;5617;54.046;10.676;2022-09-09T10:30:43;3.67;;;3.40;;
11125;SDS011;5617;54.046;10.676;2022-09-09T10:33:01;3.40;;;2.80;;
11125;SDS011;5617;54.046;10.676;2022-09-09T10:35:19;3.57;;;3.27;;
11125;SDS011;5617;54.046;10.676;2022-09-09T10:37:40;3.73;;;2.93;;
11125;SDS011;5617;54.046;10.676;2022-09-09T10:39:59;3.50;;;2.70;;
11125;SDS011;5617;54.046;10.676;2022-09-09T10:42:16;4.07;;;2.83;;
11125;SDS011;5617;54.046;10.676;2022-09-09T10:44:30;3.97;;;2.70;;
11125;SDS011;5617;54.046;10.676;2022-09-09T10:46:49;3.30;;;2.50;;
11125;SDS011;5617;54.046;10.676;2022-09-09T10:49:15;2.50;;;2.27;;
11125;SDS011;5617;54.046;10.676;2022-09-09T10:51:36;2.70;;;2.50;;
11125;SDS011;5617;54.046;10.676;2022-09-09T10:53:51;2.30;;;2.10;;
11125;SDS011;5617;54.046;10.676;2022-09-09T10:56:11;1.93;;;1.80;;
11125;SDS011;5617;54.046;10.676;2022-09-09T10:58:23;3.60;;;1.60;;
11125;SDS011;5617;54.046;10.676;2022-09-09T11:00:37;2.33;;;1.70;;
11125;SDS011;5617;54.046;10.676;2022-09-09T11:02:47;1.97;;;1.50;;
11125;SDS011;5617;54.046;10.676;2022-09-09T11:05:00;1.70;;;1.40;;
11125;SDS011;5617;54.046;10.676;2022-09-09T11:07:12;1.70;;;1.60;;
11125;SDS011;5617;54.046;10.676;2022-09-09T11:09:26;2.33;;;1.57;;
11125;SDS011;5617;54.046;10.676;2022-09-09T11:11:41;2.97;;;1.80;;
11125;SDS011;5617;54.046;10.676;2022-09-09T11:13:55;2.70;;;1.40;;
11125;SDS011;5617;54.046;10.676;2022-09-09T11:16:12;1.83;;;1.20;;
11125;SDS011;5617;54.046;10.676;2022-09-09T11:18:26;1.27;;;0.93;;
11125;SDS011;5617;54.046;10.676;2022-09-09T11:20:36;2.60;;;1.10;;
11125;SDS011;5617;54.046;10.676;2022-09-09T11:22:46;1.33;;;1.20;;
11125;SDS011;5617;54.046;10.676;2022-09-09T11:24:58;1.37;;;0.90;;
11125;SDS011;5617;54.046;10.676;2022-09-09T11:27:14;1.63;;;1.20;;
11125;SDS011;5617;54.046;10.676;2022-09-09T11:29:31;1.20;;;1.10;;
11125;SDS011;5617;54.046;10.676;2022-09-09T11:32:10;2.93;;;1.23;;
11125;SDS011;5617;54.046;10.676;2022-09-09T11:34:38;1.53;;;1.10;;
11125;SDS011;5617;54.046;10.676;2022-09-09T11:37:03;2.57;;;1.17;;
11125;SDS011;5617;54.046;10.676;2022-09-09T11:39:28;1.53;;;1.20;;
11125;SDS011;5617;54.046;10.676;2022-09-09T11:41:52;1.23;;;1.10;;
11125;SDS011;5617;54.046;10.676;2022-09-09T11:44:08;1.40;;;1.10;;
11125;SDS011;5617;54.046;10.676;2022-09-09T11:46:18;1.63;;;0.90;;
11125;SDS011;5617;54.046;10.676;2022-09-09T11:48:34;1.10;;;1.00;;
11125;SDS011;5617;54.046;10.676;2022-09-09T11:50:43;1.00;;;1.00;;
11125;SDS011;5617;54.046;10.676;2022-09-09T11:52:50;1.00;;;0.90;;
11125;SDS011;5617;54.046;10.676;2022-09-09T11:55:10;1.13;;;1.00;;
11125;SDS011;5617;54.046;10.676;2022-09-09T11:57:22;1.63;;;1.13;;
11125;SDS011;5617;54.046;10.676;2022-09-09T11:59:35;1.47;;;1.20;;
11125;SDS011;5617;54.046;10.676;2022-09-09T12:01:43;0.80;;;0.70;;
11125;SDS011;5617;54.046;10.676;2022-09-09T12:04:04;1.57;;;0.80;;
11125;SDS011;5617;54.046;10.676;2022-09-09T12:06:18;1.47;;;0.90;;
11125;SDS011;5617;54.046;10.676;2022-09-09T12:08:32;1.97;;;0.90;;
11125;SDS011;5617;54.046;10.676;2022-09-09T12:10:52;0.90;;;0.90;;
11125;SDS011;5617;54.046;10.676;2022-09-09T12:13:08;1.00;;;0.80;;
11125;SDS011;5617;54.046;10.676;2022-09-09T12:15:28;1.30;;;1.00;;
11125;SDS011;5617;54.046;10.676;2022-09-09T12:17:36;1.40;;;0.80;;
11125;SDS011;5617;54.046;10.676;2022-09-09T12:19:59;0.90;;;0.80;;
11125;SDS011;5617;54.046;10.676;2022-09-09T12:22:14;1.23;;;1.00;;
11125;SDS011;5617;54.046;10.676;2022-09-09T12:24:29;1.30;;;0.70;;
11125;SDS011;5617;54.046;10.676;2022-09-09T12:26:46;1.07;;;0.73;;
11125;SDS011;5617;54.046;10.676;2022-09-09T12:29:02;1.33;;;0.70;;
11125;SDS011;5617;54.046;10.676;2022-09-09T12:31:20;1.73;;;0.70;;
11125;SDS011;5617;54.046;10.676;2022-09-09T12:33:33;0.73;;;0.70;;
11125;SDS011;5617;54.046;10.676;2022-09-09T12:35:42;1.67;;;0.70;;
11125;SDS011;5617;54.046;10.676;2022-09-09T12:37:52;2.07;;;0.87;;
11125;SDS011;5617;54.046;10.676;2022-09-09T12:40:03;1.10;;;0.80;;
11125;SDS011;5617;54.046;10.676;2022-09-09T12:42:18;1.13;;;0.63;;
11125;SDS011;5617;54.046;10.676;2022-09-09T12:44:27;0.63;;;0.63;;
11125;SDS011;5617;54.046;10.676;2022-09-09T12:46:36;1.30;;;0.80;;
11125;SDS011;5617;54.046;10.676;2022-09-09T12:48:47;2.03;;;0.90;;
11125;SDS011;5617;54.046;10.676;2022-09-09T12:50:55;1.37;;;0.70;;
11125;SDS011;5617;54.046;10.676;2022-09-09T12:53:03;2.00;;;0.80;;
11125;SDS011;5617;54.046;10.676;2022-09-09T12:55:16;2.13;;;1.03;;
11125;SDS011;5617;54.046;10.676;2022-09-09T12:57:29;1.30;;;0.80;;
11125;SDS011;5617;54.046;10.676;2022-09-09T12:59:43;1.40;;;0.80;;